Time;durP1;ratioP1;P1;durP2;ratioP2;P2;SDS_P1;SDS_P2;PMS_P1;PMS_P2;Temp;Humidity;BMP_temperature;BMP_pressure;BME280_temperature;BME280_humidity;BME280_pressure;Samples;Min_cycle;Max_cycle;Signal;HPM_P1;HPM_P2
2022/05/07 00:00:22;;;;;;;21.17;15.73;;;12.80;99.90;;;;;;5067734;28;20059;-78
2022/05/07 00:02:48;;;;;;;19.07;14.87;;;12.80;99.90;;;;;;5064443;28;20079;-78
2022/05/07 00:05:14;;;;;;;18.60;14.80;;;12.80;99.90;;;;;;5067192;28;20100;-78
2022/05/07 00:07:40;;;;;;;25.03;18.07;;;12.80;99.90;;;;;;5067336;28;20063;-78
2022/05/07 00:10:06;;;;;;;20.77;17.03;;;12.70;99.90;;;;;;5064313;28;20094;-78
2022/05/07 00:12:32;;;;;;;24.43;16.77;;;12.80;99.90;;;;;;5053417;28;20063;-79
2022/05/07 00:14:57;;;;;;;17.97;15.83;;;12.80;99.90;;;;;;5064237;28;20067;-78
2022/05/07 00:20:09;;;;;;;23.47;18.20;;;12.70;99.90;;;;;;5053264;28;20045;-78
2022/05/07 00:22:34;;;;;;;26.93;17.97;;;12.70;99.90;;;;;;5066027;28;20048;-79
2022/05/07 00:25:01;;;;;;;23.17;18.23;;;12.70;99.90;;;;;;5067471;28;20045;-79
2022/05/07 00:27:26;;;;;;;24.93;18.20;;;12.70;99.90;;;;;;5062384;28;20052;-78
2022/05/07 00:29:52;;;;;;;24.23;18.37;;;12.70;99.90;;;;;;5062478;28;20044;-78
2022/05/07 00:32:18;;;;;;;25.20;18.30;;;12.70;99.90;;;;;;5067414;28;20036;-78
2022/05/07 00:34:43;;;;;;;21.60;17.83;;;12.70;99.90;;;;;;5065128;28;20049;-78
2022/05/07 00:37:09;;;;;;;29.83;18.27;;;12.70;99.90;;;;;;5066300;28;20385;-77
2022/05/07 00:39:35;;;;;;;23.40;19.00;;;12.70;99.90;;;;;;5061382;28;20543;-78
2022/05/07 00:42:03;;;;;;;24.00;18.83;;;12.70;99.90;;;;;;5067243;28;20041;-79
2022/05/07 00:44:28;;;;;;;24.13;18.30;;;12.70;99.90;;;;;;5046360;28;20033;-78
2022/05/07 00:47:10;;;;;;;27.77;18.80;;;12.70;99.90;;;;;;5048818;28;20042;-78
2022/05/07 00:49:36;;;;;;;22.83;17.70;;;12.70;99.90;;;;;;5066971;28;20087;-78
2022/05/07 00:52:02;;;;;;;25.57;18.60;;;12.70;99.90;;;;;;5068233;28;20056;-78
2022/05/07 00:54:27;;;;;;;24.87;19.20;;;12.70;99.90;;;;;;5064727;28;20040;-78
2022/05/07 00:56:53;;;;;;;25.43;18.93;;;12.70;99.90;;;;;;5063545;28;20056;-78
2022/05/07 00:59:19;;;;;;;23.63;18.67;;;12.70;99.90;;;;;;5065943;28;20032;-78
2022/05/07 01:01:45;;;;;;;21.90;17.50;;;12.70;99.90;;;;;;5061666;28;20044;-79
2022/05/07 01:04:11;;;;;;;24.53;18.43;;;12.80;99.90;;;;;;5066933;28;20032;-78
2022/05/07 01:06:37;;;;;;;22.97;18.50;;;12.70;99.90;;;;;;5066689;28;20040;-78
2022/05/07 01:09:04;;;;;;;24.93;19.30;;;12.70;99.90;;;;;;5064450;28;20040;-78
2022/05/07 01:11:31;;;;;;;22.53;18.40;;;12.70;99.90;;;;;;5066324;28;20040;-78
2022/05/07 01:13:57;;;;;;;25.17;19.10;;;12.70;99.90;;;;;;5061744;28;20076;-77
2022/05/07 01:16:26;;;;;;;22.93;18.10;;;12.70;99.90;;;;;;5063950;28;20051;-78
2022/05/07 01:18:51;;;;;;;23.70;18.43;;;12.70;99.90;;;;;;5066973;28;20044;-78
2022/05/07 01:21:17;;;;;;;21.30;18.30;;;12.70;99.90;;;;;;5066708;28;20063;-78
2022/05/07 01:23:44;;;;;;;23.97;19.17;;;12.80;99.90;;;;;;5067438;28;20045;-78
2022/05/07 01:26:11;;;;;;;22.50;18.90;;;12.80;99.90;;;;;;5065512;28;20037;-78
2022/05/07 01:28:38;;;;;;;25.27;18.63;;;12.80;99.90;;;;;;5061317;28;20059;-78
2022/05/07 01:31:05;;;;;;;24.00;18.33;;;12.70;99.90;;;;;;5047410;28;20055;-78
2022/05/07 01:33:34;;;;;;;25.57;18.77;;;12.70;99.90;;;;;;5038996;28;20041;-78
2022/05/07 01:36:07;;;;;;;23.43;19.23;;;12.70;99.90;;;;;;5064715;28;20077;-78
2022/05/07 01:38:32;;;;;;;27.47;20.03;;;12.70;99.90;;;;;;5066992;28;20044;-78
2022/05/07 01:40:59;;;;;;;28.37;20.00;;;12.70;99.90;;;;;;5068912;28;20049;-79
2022/05/07 01:43:27;;;;;;;27.60;20.63;;;12.70;99.90;;;;;;5032229;28;20515;-78
2022/05/07 01:45:55;;;;;;;28.17;20.17;;;12.70;99.90;;;;;;5068233;28;20040;-78
2022/05/07 01:48:21;;;;;;;27.57;19.63;;;12.70;99.90;;;;;;5069281;28;20060;-78
2022/05/07 01:50:47;;;;;;;25.10;19.83;;;12.70;99.90;;;;;;5055784;28;20076;-78
2022/05/07 01:53:14;;;;;;;28.47;19.83;;;12.80;99.90;;;;;;5067965;28;20068;-77
2022/05/07 01:55:40;;;;;;;28.70;20.83;;;12.80;99.90;;;;;;5069166;28;20059;-76
2022/05/07 01:58:06;;;;;;;27.37;19.77;;;12.80;99.90;;;;;;5069337;28;20127;-78
2022/05/07 02:00:33;;;;;;;25.73;19.77;;;12.80;99.90;;;;;;5050646;28;20113;-77
2022/05/07 02:02:59;;;;;;;27.90;21.17;;;12.80;99.90;;;;;;5068775;28;20044;-78
2022/05/07 02:05:26;;;;;;;28.00;20.93;;;12.80;99.90;;;;;;5069456;28;20079;-78
2022/05/07 02:07:53;;;;;;;25.23;20.17;;;12.80;99.90;;;;;;5070537;28;20057;-78
2022/05/07 02:10:18;;;;;;;25.57;20.13;;;12.80;99.90;;;;;;5051380;28;20065;-78
2022/05/07 02:12:44;;;;;;;26.27;20.20;;;12.80;99.90;;;;;;5068332;28;20047;-78
2022/05/07 02:15:10;;;;;;;28.90;21.40;;;12.80;99.90;;;;;;5068000;28;20033;-78
2022/05/07 02:17:36;;;;;;;28.33;21.13;;;12.80;99.90;;;;;;5050342;28;20136;-78
2022/05/07 02:20:03;;;;;;;28.07;20.83;;;12.80;99.90;;;;;;5067075;28;20048;-78
2022/05/07 02:22:29;;;;;;;29.07;21.23;;;12.80;99.90;;;;;;5067555;28;20048;-78
2022/05/07 02:24:55;;;;;;;31.90;21.37;;;12.80;99.90;;;;;;5055547;28;20854;-78
2022/05/07 02:27:21;;;;;;;27.70;21.30;;;12.80;99.90;;;;;;5066860;28;20052;-77
2022/05/07 02:29:47;;;;;;;30.13;22.33;;;12.80;99.90;;;;;;5069060;28;20149;-78
2022/05/07 02:32:13;;;;;;;28.83;22.17;;;12.70;99.90;;;;;;5051528;28;20040;-78
2022/05/07 02:34:40;;;;;;;29.87;22.50;;;12.70;99.90;;;;;;5067583;28;20045;-78
2022/05/07 02:37:06;;;;;;;30.33;22.57;;;12.70;99.90;;;;;;5069579;28;20044;-78
2022/05/07 02:39:32;;;;;;;32.40;23.30;;;12.70;99.90;;;;;;5068020;28;20399;-77
2022/05/07 02:44:43;;;;;;;31.73;22.83;;;12.70;99.90;;;;;;5050791;28;20037;-78
2022/05/07 02:47:09;;;;;;;34.47;24.23;;;12.70;99.90;;;;;;5049534;28;20036;-78
2022/05/07 02:49:35;;;;;;;32.03;22.90;;;12.70;99.90;;;;;;5052488;28;20086;-77
2022/05/07 02:52:02;;;;;;;29.77;23.43;;;12.70;99.90;;;;;;5068812;28;21003;-78
2022/05/07 02:54:28;;;;;;;30.93;23.97;;;12.70;99.90;;;;;;5068284;28;20128;-77
2022/05/07 02:56:56;;;;;;;31.23;24.90;;;12.70;99.90;;;;;;5067004;28;20074;-79
2022/05/07 02:59:23;;;;;;;33.47;24.00;;;12.70;99.90;;;;;;5066558;28;20049;-79
2022/05/07 03:01:49;;;;;;;30.73;23.37;;;12.70;99.90;;;;;;5047874;28;20048;-78
2022/05/07 03:04:15;;;;;;;32.63;23.83;;;12.60;99.90;;;;;;5051581;28;20183;-79
2022/05/07 03:06:41;;;;;;;33.13;23.70;;;12.70;99.90;;;;;;5050484;28;20102;-78
2022/05/07 03:09:07;;;;;;;36.93;24.67;;;12.70;99.90;;;;;;5052105;28;20045;-79
2022/05/07 03:11:33;;;;;;;34.07;24.83;;;12.70;99.90;;;;;;5067478;28;20047;-78
2022/05/07 03:14:06;;;;;;;40.90;26.03;;;12.70;99.90;;;;;;5062332;28;20029;-77
2022/05/07 03:16:35;;;;;;;33.73;24.40;;;12.70;99.90;;;;;;5069560;28;20175;-79
2022/05/07 03:19:02;;;;;;;31.83;24.37;;;12.70;99.90;;;;;;5068394;28;20052;-78
2022/05/07 03:21:28;;;;;;;35.97;25.00;;;12.70;99.90;;;;;;5067210;28;20040;-79
2022/05/07 03:23:54;;;;;;;32.53;24.43;;;12.70;99.90;;;;;;5051134;28;20059;-78
2022/05/07 03:26:22;;;;;;;33.93;23.63;;;12.70;99.90;;;;;;5067506;28;20044;-79
2022/05/07 03:28:48;;;;;;;36.07;24.03;;;12.70;99.90;;;;;;5048583;28;20048;-78
2022/05/07 03:31:15;;;;;;;36.13;24.20;;;12.70;99.90;;;;;;5069017;28;20048;-78
2022/05/07 03:33:40;;;;;;;36.67;25.17;;;12.70;99.90;;;;;;5068594;28;20047;-78
2022/05/07 03:36:06;;;;;;;31.77;24.83;;;12.70;99.90;;;;;;5068102;28;20040;-78
2022/05/07 03:38:32;;;;;;;32.27;23.27;;;12.70;99.90;;;;;;5051701;28;20039;-78
2022/05/07 03:40:58;;;;;;;33.30;23.73;;;12.70;99.90;;;;;;5048893;28;20043;-78
2022/05/07 03:43:24;;;;;;;35.40;24.30;;;12.70;99.90;;;;;;5051386;28;20040;-78
2022/05/07 03:45:50;;;;;;;32.40;24.03;;;12.70;99.90;;;;;;5066724;28;20061;-77
2022/05/07 03:48:16;;;;;;;31.23;23.93;;;12.70;99.90;;;;;;5051482;28;20056;-77
2022/05/07 03:50:42;;;;;;;35.43;25.70;;;12.70;99.90;;;;;;5053264;28;20048;-78
2022/05/07 03:55:52;;;;;;;32.47;24.23;;;12.60;99.90;;;;;;5067412;28;20048;-77
2022/05/07 03:58:18;;;;;;;34.93;24.90;;;12.60;99.90;;;;;;5051812;28;20250;-78
2022/05/07 04:00:44;;;;;;;36.87;24.43;;;12.60;99.90;;;;;;5065861;28;20060;-79
2022/05/07 04:03:13;;;;;;;35.37;25.83;;;12.60;99.90;;;;;;5053366;28;20048;-79
2022/05/07 04:05:39;;;;;;;32.03;25.17;;;12.60;99.90;;;;;;5064052;28;20500;-78
2022/05/07 04:08:05;;;;;;;31.00;24.40;;;12.60;99.90;;;;;;5063301;28;20041;-79
2022/05/07 04:10:31;;;;;;;35.93;25.80;;;12.60;99.90;;;;;;5064612;28;20036;-78
2022/05/07 04:12:57;;;;;;;33.10;24.80;;;12.60;99.90;;;;;;5049025;28;20166;-78
2022/05/07 04:15:23;;;;;;;35.83;24.93;;;12.60;99.90;;;;;;5047931;28;20111;-78
2022/05/07 04:17:49;;;;;;;33.63;25.07;;;12.60;99.90;;;;;;5065259;28;20041;-78
2022/05/07 04:20:16;;;;;;;34.23;25.30;;;12.60;99.90;;;;;;5066291;28;20090;-78
2022/05/07 04:22:42;;;;;;;36.57;25.63;;;12.60;99.90;;;;;;5066010;28;20096;-78
2022/05/07 04:25:09;;;;;;;32.20;23.97;;;12.60;99.90;;;;;;5066916;28;20064;-77
2022/05/07 04:27:35;;;;;;;34.90;26.43;;;12.60;99.90;;;;;;5063184;28;20049;-77
2022/05/07 04:30:01;;;;;;;35.90;25.03;;;12.60;99.90;;;;;;5049362;28;20048;-77
2022/05/07 04:32:27;;;;;;;35.23;26.50;;;12.60;99.90;;;;;;5067267;28;20040;-78
2022/05/07 04:34:57;;;;;;;32.90;24.53;;;12.60;99.90;;;;;;5064985;28;20033;-76
2022/05/07 04:37:24;;;;;;;36.07;25.60;;;12.60;99.90;;;;;;5067332;28;20048;-77
2022/05/07 04:39:49;;;;;;;35.77;25.60;;;12.60;99.90;;;;;;5067161;28;20170;-77
2022/05/07 04:42:15;;;;;;;34.17;25.00;;;12.60;99.90;;;;;;5051591;28;20749;-77
2022/05/07 04:44:41;;;;;;;35.60;25.37;;;12.60;99.90;;;;;;5063772;28;20083;-77
2022/05/07 04:47:07;;;;;;;36.83;25.97;;;12.60;99.90;;;;;;5063677;28;20055;-77
2022/05/07 04:49:33;;;;;;;34.27;25.53;;;12.70;99.90;;;;;;5058394;28;20109;-77
2022/05/07 04:51:59;;;;;;;40.03;26.80;;;12.70;99.90;;;;;;5062862;28;20052;-76
2022/05/07 04:54:25;;;;;;;36.83;27.27;;;12.70;99.90;;;;;;5065861;28;20045;-77
2022/05/07 04:56:52;;;;;;;38.00;27.80;;;12.80;99.90;;;;;;5047245;28;20500;-77
2022/05/07 04:59:20;;;;;;;37.03;26.60;;;12.80;99.90;;;;;;5051034;28;20060;-77
2022/05/07 05:01:47;;;;;;;38.47;26.33;;;12.80;99.90;;;;;;5061281;28;20634;-77
2022/05/07 05:04:13;;;;;;;35.43;26.40;;;12.80;99.90;;;;;;5032375;28;20048;-77
2022/05/07 05:06:39;;;;;;;37.93;26.63;;;12.90;99.90;;;;;;5063862;28;20059;-78
2022/05/07 05:09:07;;;;;;;37.87;27.80;;;12.90;99.90;;;;;;5063878;28;20036;-77
2022/05/07 05:11:34;;;;;;;38.07;26.73;;;12.90;99.90;;;;;;5063001;28;20087;-77
2022/05/07 05:13:59;;;;;;;40.13;27.63;;;13.00;99.90;;;;;;5061122;28;20052;-77
2022/05/07 05:16:25;;;;;;;36.50;26.97;;;13.00;99.90;;;;;;5064610;28;20142;-77
2022/05/07 05:18:51;;;;;;;42.13;27.40;;;13.00;99.90;;;;;;5064134;28;20032;-78
2022/05/07 05:21:17;;;;;;;39.73;26.60;;;13.00;99.90;;;;;;5048836;28;20041;-77
2022/05/07 05:23:46;;;;;;;42.63;27.00;;;13.00;99.90;;;;;;5062147;28;20109;-77
2022/05/07 05:26:12;;;;;;;36.83;25.77;;;13.00;99.90;;;;;;5065438;28;20052;-76
2022/05/07 05:28:39;;;;;;;35.03;25.67;;;13.00;99.90;;;;;;5052247;28;20791;-76
2022/05/07 05:31:06;;;;;;;38.53;27.80;;;13.00;99.90;;;;;;5065044;28;20044;-76
2022/05/07 05:33:32;;;;;;;41.03;27.47;;;13.10;99.90;;;;;;5065499;28;20109;-76
2022/05/07 05:35:58;;;;;;;42.57;27.20;;;13.00;99.90;;;;;;5061688;28;20048;-77
2022/05/07 05:38:24;;;;;;;40.03;27.43;;;13.00;99.90;;;;;;5063491;28;20082;-80
2022/05/07 05:40:50;;;;;;;40.13;28.37;;;13.00;99.90;;;;;;5015152;28;20610;-77
2022/05/07 05:43:17;;;;;;;44.00;29.53;;;13.00;99.90;;;;;;5043524;28;20040;-78
2022/05/07 05:45:43;;;;;;;41.90;28.87;;;13.00;99.90;;;;;;5027288;28;20055;-78
2022/05/07 05:48:09;;;;;;;46.60;31.50;;;13.00;99.90;;;;;;5043734;28;20604;-76
2022/05/07 05:50:35;;;;;;;42.67;29.10;;;13.00;99.90;;;;;;5065043;28;20111;-79
2022/05/07 05:53:01;;;;;;;44.13;29.70;;;13.10;99.90;;;;;;5059622;28;20052;-78
2022/05/07 05:55:27;;;;;;;50.47;29.80;;;13.20;99.90;;;;;;5055700;28;20051;-77
2022/05/07 05:57:52;;;;;;;48.40;31.70;;;13.20;99.90;;;;;;5046356;28;20040;-75
2022/05/07 06:00:18;;;;;;;42.97;29.60;;;13.30;99.90;;;;;;5059284;28;20196;-77
2022/05/07 06:02:44;;;;;;;45.17;30.63;;;13.30;99.90;;;;;;5061348;28;20039;-76
2022/05/07 06:05:11;;;;;;;41.77;28.23;;;13.40;99.90;;;;;;5061546;28;20048;-75
2022/05/07 06:07:37;;;;;;;41.07;28.03;;;13.50;99.90;;;;;;5071983;28;20260;-75
2022/05/07 06:10:04;;;;;;;42.23;28.50;;;13.50;99.90;;;;;;5042982;28;20123;-76
2022/05/07 06:12:30;;;;;;;42.73;29.17;;;13.60;99.90;;;;;;5063010;28;20428;-73
2022/05/07 06:14:56;;;;;;;40.03;28.70;;;13.70;99.90;;;;;;5064473;28;20064;-75
2022/05/07 06:17:22;;;;;;;38.67;28.37;;;13.70;99.90;;;;;;5065527;28;20114;-76
2022/05/07 06:19:48;;;;;;;41.40;28.50;;;13.80;99.90;;;;;;5068168;28;20049;-76
2022/05/07 06:22:14;;;;;;;43.93;30.83;;;13.80;99.90;;;;;;5047964;28;20450;-75
2022/05/07 06:27:33;;;;;;;38.50;28.20;;;14.00;99.90;;;;;;5071556;28;20044;-75
2022/05/07 06:30:03;;;;;;;37.47;27.47;;;14.10;99.90;;;;;;5067164;28;20070;-75
2022/05/07 06:32:33;;;;;;;40.17;28.40;;;14.20;99.90;;;;;;5060029;28;20045;-74
2022/05/07 06:34:59;;;;;;;36.87;26.83;;;14.20;99.90;;;;;;5063720;28;20041;-75
2022/05/07 06:37:25;;;;;;;34.93;26.20;;;14.30;99.90;;;;;;5073154;28;20045;-77
2022/05/07 06:39:51;;;;;;;42.10;26.37;;;14.30;99.90;;;;;;5070705;28;20044;-75
2022/05/07 06:42:17;;;;;;;34.60;26.17;;;14.30;99.90;;;;;;5075526;28;20075;-76
2022/05/07 06:44:43;;;;;;;34.37;26.80;;;14.40;99.90;;;;;;5076227;28;20041;-75
2022/05/07 06:47:09;;;;;;;33.00;25.60;;;14.50;99.90;;;;;;5072257;28;20572;-75
2022/05/07 06:49:36;;;;;;;37.00;26.57;;;14.60;99.90;;;;;;5066718;28;20602;-75
2022/05/07 06:52:03;;;;;;;34.13;25.67;;;14.70;99.90;;;;;;5069392;28;20085;-75
2022/05/07 06:54:29;;;;;;;35.33;25.70;;;14.90;99.90;;;;;;5077575;28;20541;-75
2022/05/07 06:56:55;;;;;;;33.28;25.35;;;15.00;99.90;;;;;;5064346;28;20056;-75
2022/05/07 06:59:21;;;;;;;35.50;25.83;;;15.10;99.90;;;;;;5067205;28;20041;-75
2022/05/07 07:01:47;;;;;;;31.87;23.77;;;15.20;99.90;;;;;;5070352;28;20163;-75
2022/05/07 07:04:13;;;;;;;32.40;24.75;;;15.20;99.90;;;;;;5068209;28;20508;-75
2022/05/07 07:06:39;;;;;;;29.38;23.85;;;15.30;99.90;;;;;;5066327;28;20092;-75
2022/05/07 07:09:05;;;;;;;33.88;23.60;;;15.30;99.90;;;;;;5071807;28;20048;-76
2022/05/07 07:11:31;;;;;;;30.75;23.08;;;15.40;99.90;;;;;;5075085;28;20094;-75
2022/05/07 07:13:57;;;;;;;29.90;23.33;;;15.40;99.90;;;;;;5067520;28;20072;-75
2022/05/07 07:16:22;;;;;;;31.02;24.83;;;15.40;99.90;;;;;;5071445;28;20044;-75
2022/05/07 07:18:48;;;;;;;30.00;23.92;;;15.50;99.90;;;;;;5071150;28;20500;-76
2022/05/07 07:21:14;;;;;;;31.73;24.10;;;15.60;99.90;;;;;;5071992;28;20055;-75
2022/05/07 07:23:40;;;;;;;31.65;23.80;;;15.60;99.90;;;;;;5072717;28;20044;-75
2022/05/07 07:26:06;;;;;;;30.52;23.88;;;15.70;99.90;;;;;;5071460;28;20057;-75
2022/05/07 07:28:32;;;;;;;32.13;22.98;;;15.70;99.90;;;;;;5070404;28;20048;-75
2022/05/07 07:30:58;;;;;;;29.58;21.92;;;15.60;99.90;;;;;;5073983;28;20144;-75
2022/05/07 07:33:24;;;;;;;31.35;22.50;;;15.70;99.90;;;;;;5074663;28;20059;-76
2022/05/07 07:35:49;;;;;;;31.00;23.00;;;15.70;99.90;;;;;;5067117;28;20069;-75
2022/05/07 07:38:15;;;;;;;32.47;23.13;;;15.80;99.90;;;;;;5070602;28;20159;-75
2022/05/07 07:40:44;;;;;;;27.30;22.13;;;15.80;99.90;;;;;;5069258;28;20037;-75
2022/05/07 07:43:10;;;;;;;27.20;21.63;;;16.00;99.90;;;;;;5071969;28;20102;-75
2022/05/07 07:48:21;;;;;;;29.13;21.75;;;16.30;99.90;;;;;;5066005;28;20053;-75
2022/05/07 07:50:50;;;;;;;26.90;20.60;;;16.30;99.90;;;;;;5076809;28;20056;-75
2022/05/07 07:53:16;;;;;;;29.85;21.67;;;16.40;99.90;;;;;;5077657;28;20049;-75
2022/05/07 07:55:41;;;;;;;29.92;20.63;;;16.50;99.90;;;;;;5074822;28;20055;-75
2022/05/07 07:58:09;;;;;;;25.27;19.02;;;16.50;99.90;;;;;;5071558;28;20052;-75
2022/05/07 08:00:37;;;;;;;26.02;18.48;;;16.50;99.90;;;;;;5067768;28;20041;-76
2022/05/07 08:03:09;;;;;;;22.38;17.70;;;16.50;99.90;;;;;;5075393;28;20052;-76
2022/05/07 08:05:36;;;;;;;22.60;16.73;;;16.50;99.90;;;;;;5073604;28;20060;-75
2022/05/07 08:13:38;;;;;;;22.38;16.45;;;16.70;99.90;;;;;;5072833;28;20049;-74
2022/05/07 08:16:05;;;;;;;24.20;16.27;;;16.80;99.90;;;;;;5065155;28;20080;-74
2022/05/07 08:18:31;;;;;;;25.58;16.27;;;16.80;99.90;;;;;;5066170;28;20048;-75
2022/05/07 08:20:57;;;;;;;19.90;14.50;;;16.80;99.90;;;;;;5072198;28;20079;-75
2022/05/07 08:23:24;;;;;;;21.05;14.73;;;16.90;99.90;;;;;;5070427;28;20098;-75
2022/05/07 08:25:51;;;;;;;19.75;14.65;;;16.90;99.90;;;;;;5070788;28;20058;-75
2022/05/07 08:28:17;;;;;;;19.15;13.82;;;17.00;99.90;;;;;;5069355;28;20044;-74
2022/05/07 08:30:43;;;;;;;21.35;14.60;;;17.10;99.90;;;;;;5067641;28;20066;-75
2022/05/07 08:33:09;;;;;;;21.17;15.70;;;17.10;99.90;;;;;;5074947;28;20056;-75
2022/05/07 08:35:35;;;;;;;22.88;15.70;;;17.20;99.90;;;;;;5073550;28;20261;-75
2022/05/07 08:38:00;;;;;;;20.13;14.43;;;17.20;99.90;;;;;;5066110;28;20404;-76
2022/05/07 08:40:27;;;;;;;22.83;15.18;;;17.30;99.90;;;;;;5072375;28;20044;-76
2022/05/07 08:42:56;;;;;;;24.45;15.10;;;17.30;99.90;;;;;;5067027;28;20033;-75
2022/05/07 08:45:23;;;;;;;19.75;15.50;;;17.30;99.90;;;;;;5072402;28;20044;-75
2022/05/07 08:47:52;;;;;;;25.75;15.05;;;17.20;99.90;;;;;;5066269;28;20040;-75
2022/05/07 08:50:18;;;;;;;21.13;15.07;;;17.10;99.90;;;;;;5069488;28;20457;-75
2022/05/07 08:52:45;;;;;;;17.40;12.75;;;17.10;99.90;;;;;;5066703;28;20046;-75
2022/05/07 08:55:19;;;;;;;21.67;13.48;;;17.00;99.90;;;;;;5072724;28;20407;-75
2022/05/07 08:57:46;;;;;;;18.60;12.00;;;17.00;99.90;;;;;;5072437;28;20080;-75
2022/05/07 09:00:15;;;;;;;17.23;11.15;;;17.00;99.90;;;;;;5074329;28;20048;-75
2022/05/07 09:02:49;;;;;;;19.30;12.10;;;17.00;99.90;;;;;;5067528;28;20056;-75
2022/05/07 09:05:20;;;;;;;17.27;13.35;;;17.00;99.90;;;;;;5073914;28;20059;-75
2022/05/07 09:07:59;;;;;;;17.73;11.40;;;17.00;99.90;;;;;;5071316;28;20150;-76
2022/05/07 09:10:30;;;;;;;14.05;11.13;;;17.00;99.90;;;;;;5072170;28;20053;-75
2022/05/07 09:13:08;;;;;;;17.23;12.57;;;17.10;99.90;;;;;;5070940;28;20098;-75
2022/05/07 09:15:35;;;;;;;16.55;13.48;;;17.10;99.90;;;;;;5074609;28;20387;-75
2022/05/07 09:18:12;;;;;;;17.17;13.18;;;17.30;99.90;;;;;;5067129;28;20050;-75
2022/05/07 09:20:38;;;;;;;16.42;12.73;;;17.30;99.90;;;;;;5073740;28;20052;-73
2022/05/07 09:23:04;;;;;;;20.13;14.23;;;17.30;99.90;;;;;;5064226;28;20673;-75
2022/05/07 09:25:30;;;;;;;20.65;13.45;;;17.30;99.90;;;;;;5063561;28;20052;-76
2022/05/07 09:27:56;;;;;;;19.85;12.93;;;17.30;99.90;;;;;;5064006;28;20087;-74
2022/05/07 09:30:26;;;;;;;16.83;11.90;;;17.40;99.90;;;;;;5068316;28;20044;-75
2022/05/07 09:32:54;;;;;;;18.27;12.35;;;17.50;99.90;;;;;;5071854;28;20044;-74
2022/05/07 09:38:09;;;;;;;19.35;12.27;;;17.70;99.90;;;;;;5071728;28;20049;-74
2022/05/07 09:40:42;;;;;;;16.88;12.93;;;17.90;99.90;;;;;;5071924;28;20049;-75
2022/05/07 09:43:12;;;;;;;17.58;13.27;;;18.00;99.90;;;;;;5067651;28;20076;-75
2022/05/07 09:45:40;;;;;;;18.48;12.50;;;18.10;99.90;;;;;;5071358;28;20052;-75
2022/05/07 09:48:07;;;;;;;21.20;13.60;;;18.10;99.90;;;;;;5072932;28;20409;-75
2022/05/07 09:58:51;;;;;;;18.15;13.45;;;18.40;99.90;;;;;;5061269;28;20045;-75
2022/05/07 10:01:42;;;;;;;25.63;14.80;;;18.50;99.90;;;;;;5075295;28;20091;-75
2022/05/07 10:04:29;;;;;;;19.60;14.18;;;18.50;99.90;;;;;;5071634;28;20666;-75
2022/05/07 10:07:00;;;;;;;22.52;16.10;;;18.60;99.90;;;;;;5074327;28;20056;-75
2022/05/07 10:09:41;;;;;;;25.70;17.85;;;18.60;99.90;;;;;;5076387;28;20048;-75
2022/05/07 10:12:09;;;;;;;25.40;17.60;;;18.50;99.90;;;;;;5064392;28;20048;-75
2022/05/07 10:14:35;;;;;;;24.77;18.30;;;18.50;99.90;;;;;;5073639;28;20060;-75
2022/05/07 10:17:05;;;;;;;25.15;19.20;;;18.40;99.90;;;;;;5063541;28;20138;-76
2022/05/07 10:19:45;;;;;;;26.40;18.17;;;18.30;99.90;;;;;;5074583;28;20067;-75
2022/05/07 10:22:16;;;;;;;25.23;17.58;;;18.20;99.90;;;;;;5056650;28;20083;-75
2022/05/07 10:24:42;;;;;;;23.48;16.65;;;18.20;99.90;;;;;;5071689;28;20109;-75
2022/05/07 10:27:21;;;;;;;21.92;15.00;;;18.10;99.90;;;;;;5074812;28;20059;-75
2022/05/07 10:29:47;;;;;;;22.70;15.00;;;18.10;99.90;;;;;;5077327;28;20040;-75
2022/05/07 10:32:18;;;;;;;18.65;13.27;;;18.10;99.90;;;;;;5073367;28;20052;-75
2022/05/07 10:34:56;;;;;;;23.35;15.57;;;18.10;99.90;;;;;;5073695;28;20453;-75
2022/05/07 10:37:22;;;;;;;22.42;15.82;;;18.20;99.90;;;;;;5074874;28;20128;-75
2022/05/07 10:39:52;;;;;;;22.23;16.60;;;18.30;99.90;;;;;;5071533;28;20072;-75
2022/05/07 10:42:19;;;;;;;28.40;17.27;;;18.40;99.90;;;;;;5073490;28;20119;-75
2022/05/07 10:44:45;;;;;;;22.15;17.10;;;18.40;99.90;;;;;;5074482;28;20095;-75
2022/05/07 10:47:14;;;;;;;22.17;17.90;;;18.50;99.90;;;;;;5076099;28;20055;-75
2022/05/07 10:50:13;;;;;;;26.90;17.58;;;18.60;99.90;;;;;;5076896;28;20048;-75
2022/05/07 10:52:39;;;;;;;23.98;17.08;;;18.60;99.90;;;;;;5065703;28;20103;-75
2022/05/07 10:55:12;;;;;;;25.13;17.00;;;18.50;99.90;;;;;;5073883;28;20040;-75
2022/05/07 10:57:44;;;;;;;22.35;15.30;;;18.60;99.90;;;;;;5074310;28;20047;-74
2022/05/07 11:00:17;;;;;;;20.75;15.05;;;18.60;99.90;;;;;;5074841;28;20033;-75
2022/05/07 11:02:45;;;;;;;20.25;13.75;;;18.60;99.90;;;;;;5069628;28;20278;-74
2022/05/07 11:05:14;;;;;;;16.08;12.25;;;18.50;99.90;;;;;;5068712;28;20189;-75
2022/05/07 11:07:41;;;;;;;17.77;12.82;;;18.50;99.90;;;;;;5068598;28;20044;-75
2022/05/07 11:10:07;;;;;;;19.27;12.77;;;18.60;99.90;;;;;;5071700;28;20488;-75
2022/05/07 11:12:35;;;;;;;20.77;13.10;;;18.70;99.90;;;;;;5069062;28;20746;-75
2022/05/07 11:15:06;;;;;;;20.55;13.93;;;18.90;99.90;;;;;;5075471;28;20106;-75
2022/05/07 11:17:36;;;;;;;25.25;16.15;;;19.00;99.90;;;;;;5071432;28;20040;-76
2022/05/07 11:20:04;;;;;;;21.58;16.55;;;19.00;99.90;;;;;;5078617;28;20056;-75
2022/05/07 11:22:30;;;;;;;33.50;17.20;;;19.00;99.90;;;;;;5071850;28;20052;-75
2022/05/07 11:24:58;;;;;;;22.60;16.27;;;18.90;99.90;;;;;;5075337;28;20310;-75
2022/05/07 11:27:29;;;;;;;21.63;15.43;;;18.90;99.90;;;;;;5072062;28;20041;-76
2022/05/07 11:29:54;;;;;;;23.15;15.00;;;18.70;99.90;;;;;;5074475;28;20090;-75
2022/05/07 11:32:21;;;;;;;22.38;15.05;;;18.80;99.90;;;;;;5071828;28;20052;-75
2022/05/07 11:34:47;;;;;;;21.13;14.73;;;18.80;99.90;;;;;;5067652;28;20076;-75
2022/05/07 11:37:39;;;;;;;19.65;14.40;;;18.80;99.90;;;;;;5076333;28;20076;-75
2022/05/07 11:40:05;;;;;;;19.73;13.02;;;18.90;99.90;;;;;;5064653;28;20064;-75
2022/05/07 11:42:46;;;;;;;20.50;14.80;;;19.00;99.90;;;;;;5073819;28;20048;-76
2022/05/07 11:45:25;;;;;;;19.55;13.02;;;19.00;99.90;;;;;;5065798;28;20059;-75
2022/05/07 11:47:55;;;;;;;27.20;18.15;;;19.00;99.90;;;;;;5065678;28;20033;-75
2022/05/07 11:50:27;;;;;;;26.65;18.17;;;19.00;99.90;;;;;;5072885;28;20072;-76
2022/05/07 11:52:53;;;;;;;30.92;22.27;;;19.00;99.90;;;;;;5072611;28;20055;-75
2022/05/07 11:55:29;;;;;;;31.13;21.17;;;19.00;99.90;;;;;;5075114;28;20060;-75
2022/05/07 11:57:56;;;;;;;31.88;23.05;;;18.90;99.90;;;;;;5066880;28;20055;-75
2022/05/07 12:00:27;;;;;;;29.30;21.33;;;18.90;99.90;;;;;;5072880;28;20052;-74
2022/05/07 12:02:56;;;;;;;33.77;24.07;;;18.80;99.90;;;;;;5074716;28;20078;-74
2022/05/07 12:05:23;;;;;;;29.52;22.30;;;18.80;99.90;;;;;;5074308;28;20056;-77
2022/05/07 12:07:50;;;;;;;35.85;25.30;;;18.80;99.90;;;;;;5071657;28;20048;-76
2022/05/07 12:10:18;;;;;;;35.80;24.75;;;18.80;99.90;;;;;;5072706;28;20585;-76
2022/05/07 12:12:48;;;;;;;34.03;24.17;;;18.80;99.90;;;;;;5073388;28;20151;-76
2022/05/07 12:15:14;;;;;;;35.67;24.77;;;18.80;99.90;;;;;;5068097;28;20044;-76
2022/05/07 12:17:57;;;;;;;32.15;22.40;;;18.60;99.90;;;;;;5068964;28;20051;-76
2022/05/07 12:20:24;;;;;;;34.05;23.52;;;18.40;99.90;;;;;;5073453;28;20051;-76
2022/05/07 12:31:05;;;;;;;31.15;23.10;;;18.60;99.90;;;;;;5061072;28;20045;-76
2022/05/07 12:33:31;;;;;;;31.77;23.45;;;18.60;99.90;;;;;;5061930;28;20302;-76
2022/05/07 12:35:57;;;;;;;32.38;22.33;;;18.70;99.90;;;;;;5067708;28;20052;-76
2022/05/07 12:38:22;;;;;;;32.58;20.77;;;18.70;99.90;;;;;;5069468;28;20051;-76
2022/05/07 12:40:48;;;;;;;32.78;22.58;;;18.70;99.90;;;;;;5062205;28;20040;-76
2022/05/07 12:43:14;;;;;;;32.72;23.13;;;18.60;99.90;;;;;;5072976;28;20048;-76
2022/05/07 12:45:39;;;;;;;38.17;25.08;;;18.50;99.90;;;;;;5055417;28;20064;-77
2022/05/07 12:48:06;;;;;;;35.88;24.27;;;18.40;99.90;;;;;;5068154;28;20077;-75
2022/05/07 12:50:32;;;;;;;38.80;25.17;;;18.30;99.90;;;;;;5056217;28;20155;-76
2022/05/07 12:52:59;;;;;;;34.97;24.70;;;18.30;99.90;;;;;;5059879;28;20053;-76
2022/05/07 12:55:25;;;;;;;36.10;25.40;;;18.40;99.90;;;;;;5072887;28;20052;-76
2022/05/07 12:57:50;;;;;;;39.63;26.02;;;18.40;99.90;;;;;;5069790;28;20048;-76
2022/05/07 13:00:16;;;;;;;41.20;26.25;;;18.30;99.90;;;;;;5066747;28;20045;-76
2022/05/07 13:02:42;;;;;;;39.25;25.80;;;18.40;99.90;;;;;;5071048;28;20120;-76
2022/05/07 13:05:08;;;;;;;34.67;23.88;;;18.60;99.90;;;;;;5073035;28;20586;-76
2022/05/07 13:07:34;;;;;;;34.85;23.15;;;18.70;99.90;;;;;;5070729;28;20032;-76